createdAt,value
2019-05-06T00:01:44.338Z,67.40
2019-05-06T00:04:14.092Z,67.60
2019-05-06T00:06:44.067Z,67.80
2019-05-06T00:09:14.723Z,67.70
2019-05-06T00:11:44.902Z,67.50
2019-05-06T00:14:14.584Z,67.40
2019-05-06T00:16:45.166Z,67.40
2019-05-06T00:19:14.639Z,67.60
2019-05-06T00:21:44.460Z,67.30
2019-05-06T00:24:14.657Z,67.60
2019-05-06T00:26:55.207Z,67.60
2019-05-06T00:29:25.146Z,67.60
2019-05-06T00:31:54.808Z,67.90
2019-05-06T00:34:24.641Z,68.00
2019-05-06T00:36:54.594Z,67.80
2019-05-06T00:39:28.399Z,67.90
2019-05-06T00:42:03.903Z,68.00
2019-05-06T00:44:34.672Z,68.50
2019-05-06T00:47:05.453Z,68.00
2019-05-06T00:49:34.925Z,68.20
2019-05-06T00:52:04.598Z,68.30
2019-05-06T00:54:34.513Z,68.50
2019-05-06T00:57:04.123Z,68.30
2019-05-06T00:59:34.550Z,68.40
2019-05-06T01:02:04.604Z,68.20
2019-05-06T01:04:35.335Z,68.10
2019-05-06T01:07:04.968Z,68.00
2019-05-06T01:09:35.664Z,68.40
2019-05-06T01:12:06.051Z,68.50
2019-05-06T01:14:40.110Z,68.70
2019-05-06T01:17:09.786Z,68.90
2019-05-06T01:19:39.088Z,68.80
2019-05-06T01:22:08.932Z,68.70
2019-05-06T01:24:38.407Z,68.90
2019-05-06T01:27:07.920Z,68.90
2019-05-06T01:29:37.370Z,68.80
2019-05-06T01:32:06.792Z,68.80
2019-05-06T01:34:36.408Z,69.00
2019-05-06T01:37:05.756Z,68.90
2019-05-06T01:39:43.587Z,69.40
2019-05-06T01:42:17.847Z,69.50
2019-05-06T01:44:47.298Z,69.70
2019-05-06T01:47:16.924Z,69.90
2019-05-06T01:49:46.969Z,69.50
2019-05-06T01:52:16.653Z,69.80
2019-05-06T01:54:46.255Z,69.70
2019-05-06T01:57:15.794Z,69.60
2019-05-06T01:59:45.418Z,69.80
2019-05-06T02:02:15.198Z,69.90
2019-05-06T02:04:44.738Z,70.00
2019-05-06T02:07:14.559Z,70.00
2019-05-06T02:09:44.803Z,70.10
2019-05-06T02:12:14.436Z,70.00
2019-05-06T02:14:43.841Z,69.10
2019-05-06T02:17:14.452Z,70.10
2019-05-06T02:19:44.227Z,70.00
2019-05-06T02:22:18.230Z,70.40
2019-05-06T02:24:49.440Z,70.70
2019-05-06T02:27:18.959Z,70.80
2019-05-06T02:29:50.082Z,70.50
2019-05-06T02:32:36.315Z,70.70
2019-05-06T02:35:19.700Z,71.00
2019-05-06T02:37:49.209Z,71.60
2019-05-06T02:40:29.576Z,71.60
2019-05-06T02:42:59.147Z,71.50
2019-05-06T02:45:29.821Z,72.10
2019-05-06T02:48:07.988Z,72.10
2019-05-06T02:50:47.864Z,72.70
2019-05-06T02:53:18.887Z,72.90
2019-05-06T02:55:48.377Z,73.30
2019-05-06T02:58:17.824Z,73.50
2019-05-06T03:00:48.662Z,73.90
2019-05-06T03:03:18.262Z,74.20
2019-05-06T03:05:47.684Z,74.70
2019-05-06T03:08:17.323Z,74.40
2019-05-06T03:10:46.766Z,74.50
2019-05-06T03:13:16.241Z,74.60
2019-05-06T03:15:45.658Z,74.50
2019-05-06T03:18:15.278Z,74.50
2019-05-06T03:20:58.910Z,74.50
2019-05-06T03:23:46.139Z,74.60
2019-05-06T03:26:15.862Z,74.60
2019-05-06T03:28:45.223Z,75.40
2019-05-06T03:31:16.831Z,74.80
2019-05-06T03:34:03.751Z,74.80
2019-05-06T03:36:25.888Z,74.80
2019-05-06T03:38:48.537Z,74.50
2019-05-06T03:41:18.068Z,74.50
2019-05-06T03:43:47.440Z,74.80
2019-05-06T03:46:27.308Z,74.60
2019-05-06T03:49:05.512Z,77.60
2019-05-06T03:51:34.958Z,74.30
2019-05-06T03:54:04.624Z,74.50
2019-05-06T03:56:34.533Z,74.60
2019-05-06T03:59:04.131Z,74.80
2019-05-06T04:01:33.863Z,74.80
2019-05-06T04:04:03.787Z,74.40
2019-05-06T04:06:34.543Z,73.80
2019-05-06T04:09:05.517Z,73.50
2019-05-06T04:11:36.333Z,73.40
2019-05-06T04:14:07.018Z,73.80
2019-05-06T04:16:38.450Z,73.90
2019-05-06T04:19:09.627Z,73.90
2019-05-06T04:21:43.426Z,73.70
2019-05-06T04:24:19.416Z,74.00
2019-05-06T04:27:03.246Z,73.70
2019-05-06T04:29:35.611Z,73.70
2019-05-06T04:32:05.414Z,73.40
2019-05-06T04:34:34.865Z,73.40
2019-05-06T04:37:04.281Z,73.20
2019-05-06T04:39:34.380Z,73.20
2019-05-06T04:42:08.917Z,73.20
2019-05-06T04:44:35.976Z,73.20
2019-05-06T04:47:05.610Z,73.00
2019-05-06T04:49:35.172Z,72.30
2019-05-06T04:52:05.335Z,71.90
2019-05-06T04:54:34.861Z,71.30
2019-05-06T04:57:05.121Z,71.40
2019-05-06T04:59:35.557Z,71.10
2019-05-06T05:02:04.908Z,71.10
2019-05-06T05:04:36.840Z,71.20
2019-05-06T05:07:05.446Z,70.80
2019-05-06T05:09:35.148Z,70.60
2019-05-06T05:12:06.320Z,70.40
2019-05-06T05:14:38.149Z,70.00
2019-05-06T05:17:22.394Z,70.40
2019-05-06T05:19:52.368Z,69.40
2019-05-06T05:22:22.011Z,69.60
2019-05-06T05:24:52.351Z,69.20
2019-05-06T05:27:22.063Z,69.00
2019-05-06T05:29:52.296Z,68.80
2019-05-06T05:32:22.549Z,68.40
2019-05-06T05:34:52.408Z,67.90
2019-05-06T05:37:23.059Z,67.30
2019-05-06T05:39:52.411Z,67.10
2019-05-06T05:42:42.383Z,67.30
2019-05-06T05:45:12.869Z,66.60
2019-05-06T05:47:42.660Z,66.20
2019-05-06T05:50:19.885Z,65.80
2019-05-06T05:52:51.813Z,65.70
2019-05-06T05:55:21.941Z,65.80
2019-05-06T05:57:51.895Z,66.00
2019-05-06T06:00:23.213Z,65.20
2019-05-06T06:02:52.970Z,65.40
2019-05-06T06:05:22.618Z,65.40
2019-05-06T06:07:53.045Z,65.70
2019-05-06T06:10:24.277Z,65.70
2019-05-06T06:12:55.128Z,65.70
2019-05-06T06:15:26.696Z,65.70
2019-05-06T06:17:57.710Z,65.30
2019-05-06T06:20:45.039Z,64.90
2019-05-06T06:23:16.215Z,64.60
2019-05-06T06:25:45.882Z,64.30
2019-05-06T06:28:15.420Z,64.30
2019-05-06T06:30:46.468Z,64.60
2019-05-06T06:33:16.089Z,64.20
2019-05-06T06:36:04.246Z,63.60
2019-05-06T06:38:44.608Z,62.70
2019-05-06T06:41:14.253Z,62.00
2019-05-06T06:43:45.687Z,62.00
2019-05-06T06:46:15.138Z,61.40
2019-05-06T06:48:44.762Z,60.20
2019-05-06T06:51:14.034Z,59.00
2019-05-06T06:53:43.647Z,57.50
2019-05-06T06:56:32.830Z,56.50
2019-05-06T06:59:06.559Z,55.00
2019-05-06T07:01:43.887Z,54.40
2019-05-06T07:04:15.025Z,54.00
2019-05-06T07:06:46.057Z,53.10
2019-05-06T07:09:15.910Z,52.40
2019-05-06T07:11:45.333Z,51.30
2019-05-06T07:14:14.679Z,50.40
2019-05-06T07:16:44.256Z,48.80
2019-05-06T07:19:15.479Z,46.50
2019-05-06T07:21:46.617Z,45.20
2019-05-06T07:24:15.923Z,44.40
2019-05-06T07:26:52.179Z,43.10
2019-05-06T07:29:25.821Z,40.50
2019-05-06T07:31:53.483Z,39.20
2019-05-06T07:34:24.154Z,37.50
2019-05-06T07:36:54.114Z,36.30
2019-05-06T07:39:24.195Z,35.00
2019-05-06T07:42:02.452Z,34.10
2019-05-06T07:44:39.420Z,32.80
2019-05-06T07:47:15.561Z,31.40
2019-05-06T07:49:44.333Z,30.60
2019-05-06T07:52:17.080Z,29.40
2019-05-06T07:54:45.037Z,28.40
2019-05-06T07:57:14.905Z,26.40
2019-05-06T07:59:44.296Z,26.50
2019-05-06T08:02:14.064Z,26.20
2019-05-06T08:04:43.624Z,25.30
2019-05-06T08:07:13.062Z,24.60
2019-05-06T08:09:42.699Z,23.80
2019-05-06T08:12:12.460Z,22.70
2019-05-06T08:14:43.483Z,23.00
2019-05-06T08:17:15.264Z,22.80
2019-05-06T08:19:45.226Z,22.50
2019-05-06T08:22:19.552Z,22.60
2019-05-06T08:24:49.399Z,21.10
2019-05-06T08:27:18.706Z,21.10
2019-05-06T08:29:48.107Z,21.10
2019-05-06T08:32:17.513Z,21.40
2019-05-06T08:34:46.973Z,22.10
2019-05-06T08:37:24.029Z,24.10
2019-05-06T08:39:54.086Z,25.90
2019-05-06T08:42:23.815Z,27.20
2019-05-06T08:44:53.388Z,28.90
2019-05-06T08:47:23.092Z,30.70
2019-05-06T08:50:09.212Z,32.50
2019-05-06T08:52:56.550Z,32.80
2019-05-06T08:55:27.696Z,29.60
2019-05-06T08:57:57.256Z,26.90
2019-05-06T09:00:27.414Z,23.90
2019-05-06T09:02:56.863Z,21.90
2019-05-06T09:05:26.328Z,20.70
2019-05-06T09:07:55.717Z,20.50
2019-05-06T09:10:25.300Z,18.70
2019-05-06T09:12:55.032Z,17.80
2019-05-06T09:15:24.624Z,18.10
2019-05-06T09:17:54.330Z,19.40
2019-05-06T09:20:24.192Z,21.30
2019-05-06T09:22:53.659Z,22.50
2019-05-06T09:25:23.201Z,25.00
2019-05-06T09:27:57.233Z,26.90
2019-05-06T09:30:34.118Z,28.70
2019-05-06T09:33:03.773Z,28.60
2019-05-06T09:35:33.324Z,29.40
2019-05-06T09:38:03.000Z,30.50
2019-05-06T09:40:32.548Z,31.50
2019-05-06T09:43:04.659Z,30.50
2019-05-06T09:45:33.138Z,31.80
2019-05-06T09:48:07.635Z,31.10
2019-05-06T09:50:45.373Z,33.00
2019-05-06T09:53:13.230Z,31.30
2019-05-06T09:56:03.115Z,31.80
2019-05-06T09:58:32.462Z,31.90
2019-05-06T10:01:03.196Z,32.50
2019-05-06T10:03:32.737Z,34.20
2019-05-06T10:06:02.673Z,33.20
2019-05-06T10:08:32.554Z,33.70
2019-05-06T10:11:03.133Z,32.20
2019-05-06T10:13:33.341Z,33.20
2019-05-06T10:16:03.177Z,32.80
2019-05-06T10:18:33.671Z,33.30
2019-05-06T10:21:03.183Z,32.10
2019-05-06T10:23:32.874Z,33.40
2019-05-06T10:26:04.532Z,33.30
2019-05-06T10:28:37.755Z,32.80
2019-05-06T10:31:09.060Z,33.10
2019-05-06T10:33:40.209Z,32.50
2019-05-06T10:36:12.885Z,32.60
2019-05-06T10:38:56.859Z,32.80
2019-05-06T10:41:29.749Z,33.60
2019-05-06T10:44:16.576Z,33.10
2019-05-06T10:46:46.127Z,31.70
2019-05-06T10:49:16.659Z,32.80
2019-05-06T10:51:56.863Z,31.30
2019-05-06T10:54:26.297Z,30.00
2019-05-06T10:57:03.373Z,31.10
2019-05-06T10:59:32.771Z,30.20
2019-05-06T11:02:05.381Z,29.80
2019-05-06T11:04:34.753Z,30.80
2019-05-06T11:07:04.215Z,30.90
2019-05-06T11:09:34.923Z,30.10
2019-05-06T11:12:04.511Z,30.10
2019-05-06T11:14:34.044Z,29.50
2019-05-06T11:17:05.191Z,28.30
2019-05-06T11:19:35.056Z,28.80
2019-05-06T11:22:04.431Z,27.60
2019-05-06T11:24:33.810Z,28.40
2019-05-06T11:27:03.726Z,28.40
2019-05-06T11:29:40.231Z,28.60
2019-05-06T11:32:17.293Z,29.10
2019-05-06T11:35:03.846Z,28.80
2019-05-06T11:37:46.003Z,28.40
2019-05-06T11:40:06.604Z,28.60
2019-05-06T11:42:36.151Z,27.00
2019-05-06T11:45:07.412Z,26.80
2019-05-06T11:47:36.829Z,27.80
2019-05-06T11:50:08.766Z,26.90
2019-05-06T11:52:39.296Z,26.50
2019-05-06T11:55:12.456Z,24.60
2019-05-06T11:57:44.658Z,23.50
2019-05-06T12:00:16.574Z,21.70
2019-05-06T12:02:48.753Z,21.60
2019-05-06T12:05:18.088Z,21.30
2019-05-06T12:08:00.888Z,21.10
2019-05-06T12:10:19.320Z,22.00
2019-05-06T12:12:49.127Z,23.60
2019-05-06T12:15:18.612Z,24.80
2019-05-06T12:17:48.461Z,26.30
2019-05-06T12:20:18.368Z,25.90
2019-05-06T12:22:49.275Z,26.10
2019-05-06T12:25:19.324Z,26.00
2019-05-06T12:27:49.355Z,25.70
2019-05-06T12:30:23.014Z,25.20
2019-05-06T12:33:02.976Z,24.70
2019-05-06T12:35:32.278Z,24.60
2019-05-06T12:38:23.794Z,24.40
2019-05-06T12:40:36.992Z,25.40
2019-05-06T12:43:26.514Z,25.60
2019-05-06T12:45:57.912Z,26.80
2019-05-06T12:48:33.196Z,27.60
2019-05-06T12:51:03.248Z,28.10
2019-05-06T12:53:33.235Z,28.60
2019-05-06T12:56:04.144Z,28.70
2019-05-06T12:58:34.074Z,29.80
2019-05-06T13:01:05.502Z,33.50
2019-05-06T13:03:35.684Z,37.00
2019-05-06T13:06:08.064Z,38.80
2019-05-06T13:08:53.946Z,39.90
2019-05-06T13:11:09.310Z,40.00
2019-05-06T13:13:55.545Z,39.80
2019-05-06T13:16:12.591Z,40.10
2019-05-06T13:18:47.343Z,41.10
2019-05-06T13:21:15.846Z,40.30
2019-05-06T13:23:49.223Z,40.40
2019-05-06T13:26:19.341Z,40.50
2019-05-06T13:28:53.239Z,40.50
2019-05-06T13:31:25.529Z,40.30
2019-05-06T13:33:56.235Z,40.30
2019-05-06T13:36:26.713Z,40.60
2019-05-06T13:39:10.801Z,41.10
2019-05-06T13:41:34.559Z,40.90
2019-05-06T13:44:13.175Z,40.60
2019-05-06T13:46:44.679Z,41.70
2019-05-06T13:49:15.976Z,39.10
2019-05-06T13:51:52.606Z,38.80
2019-05-06T13:54:22.777Z,39.60
2019-05-06T13:56:52.962Z,41.40
2019-05-06T13:59:22.536Z,43.10
2019-05-06T14:01:53.783Z,44.10
2019-05-06T14:04:24.136Z,45.20
2019-05-06T14:06:53.630Z,45.00
2019-05-06T14:09:31.206Z,45.50
2019-05-06T14:11:54.354Z,45.50
2019-05-06T14:14:23.853Z,45.50
2019-05-06T14:16:53.505Z,45.60
2019-05-06T14:19:23.031Z,44.50
2019-05-06T14:21:52.671Z,43.10
2019-05-06T14:24:22.426Z,41.80
2019-05-06T14:27:03.769Z,40.60
2019-05-06T14:29:38.714Z,39.20
2019-05-06T14:32:08.282Z,38.40
2019-05-06T14:34:37.624Z,38.50
2019-05-06T14:37:07.106Z,37.70
2019-05-06T14:39:50.115Z,39.10
2019-05-06T14:42:09.576Z,39.70
2019-05-06T14:44:39.313Z,40.10
2019-05-06T14:47:13.620Z,40.80
2019-05-06T14:49:43.395Z,39.90
2019-05-06T14:52:13.426Z,40.00
2019-05-06T14:54:44.860Z,39.60
2019-05-06T14:57:15.010Z,40.40
2019-05-06T14:59:44.558Z,41.10
2019-05-06T15:02:14.473Z,41.60
2019-05-06T15:04:44.345Z,41.70
2019-05-06T15:07:13.992Z,41.50
2019-05-06T15:09:55.626Z,41.30
2019-05-06T15:12:15.258Z,41.50
2019-05-06T15:14:44.596Z,41.10
2019-05-06T15:17:14.510Z,40.90
2019-05-06T15:19:44.590Z,40.60
2019-05-06T15:22:13.985Z,40.80
2019-05-06T15:24:43.802Z,40.80
2019-05-06T15:27:13.585Z,40.90
2019-05-06T15:29:48.461Z,41.20
2019-05-06T15:32:17.920Z,41.80
2019-05-06T15:35:04.592Z,42.10
2019-05-06T15:37:42.459Z,42.40
2019-05-06T15:40:12.369Z,42.40
2019-05-06T15:42:42.624Z,42.10
2019-05-06T15:45:12.718Z,41.80
2019-05-06T15:47:42.857Z,41.90
2019-05-06T15:50:13.022Z,41.70
2019-05-06T15:52:43.513Z,42.10
2019-05-06T15:55:13.361Z,42.40
2019-05-06T15:57:43.597Z,42.50
2019-05-06T16:00:15.058Z,42.40
2019-05-06T16:02:44.510Z,42.50
2019-05-06T16:05:20.121Z,42.40
2019-05-06T16:07:45.235Z,42.80
2019-05-06T16:10:14.942Z,43.10
2019-05-06T16:12:47.966Z,43.10
2019-05-06T16:15:17.380Z,42.60
2019-05-06T16:17:47.121Z,41.60
2019-05-06T16:20:16.578Z,42.00
2019-05-06T16:22:47.801Z,42.30
2019-05-06T16:25:17.744Z,42.50
2019-05-06T16:27:51.264Z,42.70
2019-05-06T16:30:24.079Z,42.80
2019-05-06T16:32:52.766Z,42.90
2019-05-06T16:35:22.907Z,44.00
2019-05-06T16:37:52.808Z,43.80
2019-05-06T16:40:23.037Z,43.90
2019-05-06T16:42:54.144Z,43.70
2019-05-06T16:45:26.557Z,43.80
2019-05-06T16:47:58.763Z,42.20
2019-05-06T16:50:29.694Z,42.30
2019-05-06T16:53:02.597Z,42.60
2019-05-06T16:55:49.437Z,42.70
2019-05-06T16:58:22.279Z,42.40
2019-05-06T17:00:52.433Z,42.60
2019-05-06T17:03:26.713Z,43.80
2019-05-06T17:06:14.000Z,42.00
2019-05-06T17:08:43.727Z,41.80
2019-05-06T17:11:26.823Z,41.80
2019-05-06T17:13:44.680Z,41.80
2019-05-06T17:16:14.505Z,41.70
2019-05-06T17:18:44.191Z,41.90
2019-05-06T17:21:13.900Z,41.80
2019-05-06T17:23:43.482Z,42.60
2019-05-06T17:26:13.401Z,42.30
2019-05-06T17:28:53.687Z,43.00
2019-05-06T17:31:32.255Z,43.40
2019-05-06T17:34:09.599Z,43.10
2019-05-06T17:36:42.115Z,43.10
2019-05-06T17:39:12.335Z,43.10
2019-05-06T17:41:48.349Z,42.10
2019-05-06T17:44:14.094Z,42.00
2019-05-06T17:46:45.273Z,42.30
2019-05-06T17:49:16.748Z,42.20
2019-05-06T17:51:57.018Z,42.10
2019-05-06T17:54:26.740Z,42.20
2019-05-06T17:56:57.868Z,42.20
2019-05-06T17:59:27.658Z,42.40
2019-05-06T18:02:04.858Z,42.70
2019-05-06T18:04:34.558Z,42.70
2019-05-06T18:07:04.204Z,43.00
2019-05-06T18:09:34.382Z,43.20
2019-05-06T18:12:04.025Z,43.70
2019-05-06T18:14:33.617Z,43.70
2019-05-06T18:17:03.781Z,43.90
2019-05-06T18:19:33.813Z,44.00
2019-05-06T18:22:03.423Z,44.20
2019-05-06T18:24:33.817Z,44.30
2019-05-06T18:27:03.586Z,44.70
2019-05-06T18:29:33.818Z,45.00
2019-05-06T18:32:03.973Z,45.20
2019-05-06T18:34:33.769Z,45.60
2019-05-06T18:37:03.745Z,45.80
2019-05-06T18:39:34.107Z,46.10
2019-05-06T18:42:15.737Z,46.40
2019-05-06T18:44:35.927Z,46.50
2019-05-06T18:47:05.830Z,46.70
2019-05-06T18:49:35.432Z,47.20
2019-05-06T18:52:05.202Z,47.60
2019-05-06T18:54:34.949Z,47.80
2019-05-06T18:57:04.998Z,48.00
2019-05-06T18:59:36.940Z,48.30
2019-05-06T19:02:06.634Z,48.40
2019-05-06T19:04:41.910Z,48.50
2019-05-06T19:07:16.849Z,48.60
2019-05-06T19:09:52.348Z,48.70
2019-05-06T19:12:31.695Z,49.00
2019-05-06T19:14:54.424Z,49.20
2019-05-06T19:17:26.519Z,49.50
2019-05-06T19:19:56.692Z,49.70
2019-05-06T19:22:26.110Z,49.90
2019-05-06T19:24:55.481Z,50.00
2019-05-06T19:27:26.100Z,49.90
2019-05-06T19:29:55.615Z,50.00
2019-05-06T19:32:25.759Z,50.20
2019-05-06T19:34:55.247Z,50.40
2019-05-06T19:37:24.735Z,50.60
2019-05-06T19:39:54.356Z,50.90
2019-05-06T19:42:24.510Z,51.10
2019-05-06T19:44:54.202Z,51.30
2019-05-06T19:47:23.685Z,51.80
2019-05-06T19:49:53.368Z,52.10
2019-05-06T19:52:25.113Z,52.50
2019-05-06T19:54:54.363Z,52.60
2019-05-06T19:57:23.985Z,52.90
2019-05-06T19:59:53.895Z,54.30
2019-05-06T20:02:25.839Z,54.00
2019-05-06T20:04:57.626Z,54.00
2019-05-06T20:07:42.745Z,54.30
2019-05-06T20:10:23.518Z,54.50
2019-05-06T20:13:02.579Z,54.80
2019-05-06T20:15:34.699Z,54.90
2019-05-06T20:18:05.225Z,55.10
2019-05-06T20:20:35.329Z,55.40
2019-05-06T20:23:05.168Z,55.70
2019-05-06T20:25:36.966Z,56.20
2019-05-06T20:28:05.968Z,56.50
2019-05-06T20:30:35.885Z,56.70
2019-05-06T20:33:06.812Z,56.90
2019-05-06T20:35:36.445Z,57.20
2019-05-06T20:38:07.142Z,57.30
2019-05-06T20:40:38.434Z,57.70
2019-05-06T20:43:17.519Z,57.80
2019-05-06T20:45:39.453Z,58.20
2019-05-06T20:48:09.099Z,58.40
2019-05-06T20:50:38.466Z,58.50
2019-05-06T20:53:07.982Z,58.60
2019-05-06T20:55:37.583Z,58.80
2019-05-06T20:58:07.295Z,59.70
2019-05-06T21:00:37.187Z,59.00
2019-05-06T21:03:06.690Z,59.30
2019-05-06T21:05:36.272Z,59.50
2019-05-06T21:08:05.802Z,59.30
2019-05-06T21:10:35.613Z,59.50
2019-05-06T21:13:05.332Z,59.60
2019-05-06T21:15:35.002Z,59.70
2019-05-06T21:18:04.635Z,59.70
2019-05-06T21:20:35.335Z,59.70
2019-05-06T21:23:05.632Z,60.00
2019-05-06T21:25:35.427Z,60.20
2019-05-06T21:28:06.486Z,60.40
2019-05-06T21:30:36.298Z,60.60
2019-05-06T21:33:05.875Z,64.10
2019-05-06T21:35:35.552Z,60.90
2019-05-06T21:38:05.189Z,61.30
2019-05-06T21:40:34.717Z,61.30
2019-05-06T21:43:04.302Z,61.30
2019-05-06T21:45:33.899Z,61.10
2019-05-06T21:48:03.530Z,61.00
2019-05-06T21:50:33.293Z,60.90
2019-05-06T21:53:04.391Z,60.90
2019-05-06T21:55:34.221Z,61.00
2019-05-06T21:58:03.753Z,61.30
2019-05-06T22:00:37.637Z,61.40
2019-05-06T22:03:07.172Z,61.50
2019-05-06T22:05:38.077Z,61.60
2019-05-06T22:08:07.652Z,61.60
2019-05-06T22:10:37.206Z,61.60
2019-05-06T22:13:06.908Z,61.40
2019-05-06T22:15:36.833Z,61.60
2019-05-06T22:18:06.400Z,61.50
2019-05-06T22:20:37.450Z,61.60
2019-05-06T22:23:07.048Z,62.30
2019-05-06T22:25:36.763Z,61.70
2019-05-06T22:28:06.476Z,61.70
2019-05-06T22:30:36.041Z,61.70
2019-05-06T22:33:06.336Z,61.60
2019-05-06T22:35:36.652Z,61.70
2019-05-06T22:38:06.328Z,62.10
2019-05-06T22:40:36.044Z,62.20
2019-05-06T22:43:05.557Z,62.50
2019-05-06T22:45:35.576Z,63.00
2019-05-06T22:48:05.179Z,63.40
2019-05-06T22:50:35.707Z,63.50
2019-05-06T22:53:07.789Z,67.10
2019-05-06T22:55:37.401Z,67.50
2019-05-06T22:58:07.299Z,64.00
2019-05-06T23:00:38.637Z,64.00
2019-05-06T23:03:12.232Z,63.80
2019-05-06T23:05:42.308Z,64.00
2019-05-06T23:08:12.354Z,64.10
2019-05-06T23:10:43.017Z,64.20
2019-05-06T23:13:12.633Z,64.10
2019-05-06T23:15:42.269Z,64.50
2019-05-06T23:18:13.029Z,64.50
2019-05-06T23:20:43.137Z,64.70
2019-05-06T23:23:12.893Z,64.70
2019-05-06T23:25:43.582Z,64.90
2019-05-06T23:28:13.536Z,65.40
2019-05-06T23:30:43.205Z,65.60
2019-05-06T23:33:14.019Z,66.10
2019-05-06T23:35:43.946Z,66.30
2019-05-06T23:38:52.350Z,66.50
2019-05-06T23:41:57.578Z,66.70
2019-05-06T23:45:03.721Z,67.30
2019-05-06T23:48:09.540Z,67.50
2019-05-06T23:51:04.767Z,68.20
2019-05-06T23:54:12.611Z,71.60
2019-05-06T23:56:43.654Z,68.50
2019-05-06T23:59:17.463Z,68.90
